sensor_id;sensor_type;location;lat;lon;timestamp;pressure;altitude;pressure_sealevel;temperature;humidity
7474;BME280;3778;42.572;23.426;2023-03-13T00:00:35;95512.25;;;-146.70;66.30
7474;BME280;3778;42.572;23.426;2023-03-13T00:03:02;95508.09;;;-146.70;66.07
7474;BME280;3778;42.572;23.426;2023-03-13T00:05:29;95526.84;;;-146.70;66.45
7474;BME280;3778;42.572;23.426;2023-03-13T00:07:56;95528.94;;;-146.70;67.36
7474;BME280;3778;42.572;23.426;2023-03-13T00:10:22;95574.78;;;-146.70;67.67
7474;BME280;3778;42.572;23.426;2023-03-13T00:12:50;95497.66;;;-146.70;67.80
7474;BME280;3778;42.572;23.426;2023-03-13T00:15:17;95528.94;;;-146.70;68.05
7474;BME280;3778;42.572;23.426;2023-03-13T00:17:45;95560.19;;;-146.70;67.56
7474;BME280;3778;42.572;23.426;2023-03-13T00:20:12;95553.94;;;-146.70;67.10
7474;BME280;3778;42.572;23.426;2023-03-13T00:22:41;95516.44;;;-146.70;66.55
7474;BME280;3778;42.572;23.426;2023-03-13T00:25:08;95522.69;;;-146.70;65.95
7474;BME280;3778;42.572;23.426;2023-03-13T00:27:35;95533.09;;;-146.70;66.02
7474;BME280;3778;42.572;23.426;2023-03-13T00:30:02;95524.75;;;-146.70;65.76
7474;BME280;3778;42.572;23.426;2023-03-13T00:32:29;95531.00;;;-146.70;65.69
7474;BME280;3778;42.572;23.426;2023-03-13T00:34:57;95547.69;;;-146.70;65.49
7474;BME280;3778;42.572;23.426;2023-03-13T00:37:24;95491.41;;;-146.70;65.61
7474;BME280;3778;42.572;23.426;2023-03-13T00:39:50;95543.53;;;-146.70;66.32
7474;BME280;3778;42.572;23.426;2023-03-13T00:42:17;95549.78;;;-146.70;66.62
7474;BME280;3778;42.572;23.426;2023-03-13T00:44:44;95558.13;;;-146.70;66.76
7474;BME280;3778;42.572;23.426;2023-03-13T00:47:10;95533.09;;;-146.70;67.28
7474;BME280;3778;42.572;23.426;2023-03-13T00:49:37;95572.72;;;-146.70;67.71
7474;BME280;3778;42.572;23.426;2023-03-13T00:52:05;95514.34;;;-146.70;67.70
7474;BME280;3778;42.572;23.426;2023-03-13T00:54:32;95547.69;;;-146.70;67.84
7474;BME280;3778;42.572;23.426;2023-03-13T00:56:59;95528.94;;;-146.70;67.46
7474;BME280;3778;42.572;23.426;2023-03-13T00:59:25;95562.28;;;-146.70;67.26
7474;BME280;3778;42.572;23.426;2023-03-13T01:01:52;95558.13;;;-146.70;67.40
7474;BME280;3778;42.572;23.426;2023-03-13T01:04:19;95545.59;;;-146.70;66.92
7474;BME280;3778;42.572;23.426;2023-03-13T01:06:45;95603.97;;;-146.70;67.00
7474;BME280;3778;42.572;23.426;2023-03-13T01:09:14;95545.59;;;-146.70;66.77
7474;BME280;3778;42.572;23.426;2023-03-13T01:11:42;95551.88;;;-146.70;67.18
7474;BME280;3778;42.572;23.426;2023-03-13T01:14:12;95524.75;;;-146.70;67.20
7474;BME280;3778;42.572;23.426;2023-03-13T01:16:40;95541.44;;;-146.70;66.85
7474;BME280;3778;42.572;23.426;2023-03-13T01:19:09;95541.44;;;-146.70;66.97
7474;BME280;3778;42.572;23.426;2023-03-13T01:21:36;95541.44;;;-146.70;67.13
7474;BME280;3778;42.572;23.426;2023-03-13T01:24:03;95545.59;;;-146.70;67.33
7474;BME280;3778;42.572;23.426;2023-03-13T01:26:31;95501.84;;;-146.70;67.73
7474;BME280;3778;42.572;23.426;2023-03-13T01:28:58;95535.19;;;-146.70;67.88
7474;BME280;3778;42.572;23.426;2023-03-13T01:31:27;95510.16;;;-146.70;68.18
7474;BME280;3778;42.572;23.426;2023-03-13T01:33:56;95508.09;;;-146.70;67.77
7474;BME280;3778;42.572;23.426;2023-03-13T01:36:23;95595.63;;;-146.70;67.46
7474;BME280;3778;42.572;23.426;2023-03-13T01:38:51;95545.59;;;-146.70;67.48
7474;BME280;3778;42.572;23.426;2023-03-13T01:41:19;95574.78;;;-146.70;67.16
7474;BME280;3778;42.572;23.426;2023-03-13T01:43:47;95545.59;;;-146.70;67.17
7474;BME280;3778;42.572;23.426;2023-03-13T01:46:15;95564.38;;;-146.70;66.97
7474;BME280;3778;42.572;23.426;2023-03-13T01:48:46;95574.78;;;-146.70;66.84
7474;BME280;3778;42.572;23.426;2023-03-13T01:51:18;95560.19;;;-146.70;66.65
7474;BME280;3778;42.572;23.426;2023-03-13T01:53:48;95562.28;;;-146.70;66.73
7474;BME280;3778;42.572;23.426;2023-03-13T01:56:19;95591.47;;;-146.70;66.74
7474;BME280;3778;42.572;23.426;2023-03-13T01:58:51;95562.28;;;-146.70;66.92
7474;BME280;3778;42.572;23.426;2023-03-13T02:01:18;95528.94;;;-146.70;67.03
7474;BME280;3778;42.572;23.426;2023-03-13T02:03:46;95533.09;;;-146.70;67.64
7474;BME280;3778;42.572;23.426;2023-03-13T02:06:14;95531.00;;;-146.70;67.75
7474;BME280;3778;42.572;23.426;2023-03-13T02:08:44;95562.28;;;-146.70;67.82
7474;BME280;3778;42.572;23.426;2023-03-13T02:11:26;95610.22;;;-146.70;67.76
7474;BME280;3778;42.572;23.426;2023-03-13T02:13:56;95560.19;;;-146.70;67.41
7474;BME280;3778;42.572;23.426;2023-03-13T02:16:24;95549.78;;;-146.70;67.03
7474;BME280;3778;42.572;23.426;2023-03-13T02:18:51;95566.44;;;-146.70;67.03
7474;BME280;3778;42.572;23.426;2023-03-13T02:21:35;95549.78;;;-146.70;66.47
7474;BME280;3778;42.572;23.426;2023-03-13T02:24:12;95512.25;;;-146.70;66.46
7474;BME280;3778;42.572;23.426;2023-03-13T02:26:43;95528.94;;;-146.70;66.37
7474;BME280;3778;42.572;23.426;2023-03-13T02:29:10;95578.97;;;-146.70;66.65
7474;BME280;3778;42.572;23.426;2023-03-13T02:31:44;95553.94;;;-146.70;66.00
7474;BME280;3778;42.572;23.426;2023-03-13T02:34:13;95574.78;;;-146.70;65.97
7474;BME280;3778;42.572;23.426;2023-03-13T02:36:41;95522.69;;;-146.70;66.43
7474;BME280;3778;42.572;23.426;2023-03-13T02:39:10;95591.47;;;-146.70;66.34
7474;BME280;3778;42.572;23.426;2023-03-13T02:41:40;95578.97;;;-146.70;66.72
7474;BME280;3778;42.572;23.426;2023-03-13T02:44:09;95508.09;;;-146.70;66.59
7474;BME280;3778;42.572;23.426;2023-03-13T02:46:43;95583.13;;;-146.70;66.15
7474;BME280;3778;42.572;23.426;2023-03-13T02:49:20;95545.59;;;-146.70;65.91
7474;BME280;3778;42.572;23.426;2023-03-13T02:51:47;95572.72;;;-146.70;66.18
7474;BME280;3778;42.572;23.426;2023-03-13T02:54:17;95578.97;;;-146.70;66.61
7474;BME280;3778;42.572;23.426;2023-03-13T02:56:48;95578.97;;;-146.70;66.77
7474;BME280;3778;42.572;23.426;2023-03-13T02:59:17;95645.66;;;-146.70;67.32
7474;BME280;3778;42.572;23.426;2023-03-13T03:01:44;95583.13;;;-146.70;68.15
7474;BME280;3778;42.572;23.426;2023-03-13T03:04:11;95545.59;;;-146.70;68.85
7474;BME280;3778;42.572;23.426;2023-03-13T03:06:37;95568.53;;;-146.70;69.07
7474;BME280;3778;42.572;23.426;2023-03-13T03:09:05;95585.22;;;-146.70;68.88
7474;BME280;3778;42.572;23.426;2023-03-13T03:11:32;95585.22;;;-146.70;68.83
7474;BME280;3778;42.572;23.426;2023-03-13T03:14:00;95597.72;;;-146.70;68.96
7474;BME280;3778;42.572;23.426;2023-03-13T03:16:28;95570.63;;;-146.70;69.43
7474;BME280;3778;42.572;23.426;2023-03-13T03:18:55;95583.13;;;-146.70;69.89
7474;BME280;3778;42.572;23.426;2023-03-13T03:21:22;95620.66;;;-146.70;69.58
7474;BME280;3778;42.572;23.426;2023-03-13T03:23:49;95520.59;;;-146.70;69.57
7474;BME280;3778;42.572;23.426;2023-03-13T03:26:16;95547.69;;;-146.70;69.47
7474;BME280;3778;42.572;23.426;2023-03-13T03:28:43;95599.81;;;-146.70;69.24
7474;BME280;3778;42.572;23.426;2023-03-13T03:31:12;95576.88;;;-146.70;69.21
7474;BME280;3778;42.572;23.426;2023-03-13T03:33:41;95528.94;;;-146.70;68.91
7474;BME280;3778;42.572;23.426;2023-03-13T03:36:10;95587.31;;;-146.70;68.23
7474;BME280;3778;42.572;23.426;2023-03-13T03:38:38;95556.03;;;-146.70;68.52
7474;BME280;3778;42.572;23.426;2023-03-13T03:41:09;95583.13;;;-146.70;68.77
7474;BME280;3778;42.572;23.426;2023-03-13T03:43:36;95583.13;;;-146.70;69.31
7474;BME280;3778;42.572;23.426;2023-03-13T03:46:03;95556.03;;;-146.70;68.88
7474;BME280;3778;42.572;23.426;2023-03-13T03:48:30;95562.28;;;-146.70;69.00
7474;BME280;3778;42.572;23.426;2023-03-13T03:50:58;95610.22;;;-146.70;68.72
7474;BME280;3778;42.572;23.426;2023-03-13T03:53:25;95589.38;;;-146.70;68.89
7474;BME280;3778;42.572;23.426;2023-03-13T03:55:52;95608.16;;;-146.70;70.17
7474;BME280;3778;42.572;23.426;2023-03-13T03:58:19;95551.88;;;-146.70;70.96
7474;BME280;3778;42.572;23.426;2023-03-13T04:00:46;95614.41;;;-146.70;70.93
7474;BME280;3778;42.572;23.426;2023-03-13T04:03:14;95647.75;;;-146.70;70.86
7474;BME280;3778;42.572;23.426;2023-03-13T04:05:41;95614.41;;;-146.70;70.72
7474;BME280;3778;42.572;23.426;2023-03-13T04:08:09;95629.00;;;-146.70;70.45
7474;BME280;3778;42.572;23.426;2023-03-13T04:10:36;95616.47;;;-146.70;69.77
7474;BME280;3778;42.572;23.426;2023-03-13T04:13:02;95591.47;;;-146.70;69.07
7474;BME280;3778;42.572;23.426;2023-03-13T04:15:29;95583.13;;;-146.70;68.77
7474;BME280;3778;42.572;23.426;2023-03-13T04:17:56;95570.63;;;-146.70;68.86
7474;BME280;3778;42.572;23.426;2023-03-13T04:20:23;95595.63;;;-146.70;68.52
7474;BME280;3778;42.572;23.426;2023-03-13T04:22:49;95589.38;;;-146.70;68.23
7474;BME280;3778;42.572;23.426;2023-03-13T04:25:17;95566.44;;;-146.70;68.00
7474;BME280;3778;42.572;23.426;2023-03-13T04:27:44;95595.63;;;-146.70;67.97
7474;BME280;3778;42.572;23.426;2023-03-13T04:30:11;95556.03;;;-146.70;67.63
7474;BME280;3778;42.572;23.426;2023-03-13T04:32:38;95566.44;;;-146.70;68.07
7474;BME280;3778;42.572;23.426;2023-03-13T04:35:05;95545.59;;;-146.70;68.34
7474;BME280;3778;42.572;23.426;2023-03-13T04:37:32;95581.03;;;-146.70;68.44
7474;BME280;3778;42.572;23.426;2023-03-13T04:39:59;95626.91;;;-146.70;68.70
7474;BME280;3778;42.572;23.426;2023-03-13T04:42:28;95620.66;;;-146.70;68.18
7474;BME280;3778;42.572;23.426;2023-03-13T04:44:54;95583.13;;;-146.70;68.10
7474;BME280;3778;42.572;23.426;2023-03-13T04:47:21;95616.47;;;-146.70;68.37
7474;BME280;3778;42.572;23.426;2023-03-13T04:49:48;95583.13;;;-146.70;68.00
7474;BME280;3778;42.572;23.426;2023-03-13T04:52:15;95603.97;;;-146.70;67.74
7474;BME280;3778;42.572;23.426;2023-03-13T04:54:41;95587.31;;;-146.70;68.21
7474;BME280;3778;42.572;23.426;2023-03-13T04:57:08;95578.97;;;-146.70;68.53
7474;BME280;3778;42.572;23.426;2023-03-13T04:59:36;95578.97;;;-146.70;68.98
7474;BME280;3778;42.572;23.426;2023-03-13T05:02:03;95595.63;;;-146.70;69.66
7474;BME280;3778;42.572;23.426;2023-03-13T05:04:29;95610.22;;;-146.70;69.85
7474;BME280;3778;42.572;23.426;2023-03-13T05:06:56;95624.81;;;-146.70;69.85
7474;BME280;3778;42.572;23.426;2023-03-13T05:09:23;95595.63;;;-146.70;69.77
7474;BME280;3778;42.572;23.426;2023-03-13T05:11:50;95622.72;;;-146.70;69.84
7474;BME280;3778;42.572;23.426;2023-03-13T05:14:16;95606.06;;;-146.70;69.05
7474;BME280;3778;42.572;23.426;2023-03-13T05:16:45;95581.03;;;-146.70;68.92
7474;BME280;3778;42.572;23.426;2023-03-13T05:19:11;95612.31;;;-146.70;69.06
7474;BME280;3778;42.572;23.426;2023-03-13T05:21:38;95574.78;;;-146.70;68.87
7474;BME280;3778;42.572;23.426;2023-03-13T05:24:05;95606.06;;;-146.70;67.96
7474;BME280;3778;42.572;23.426;2023-03-13T05:26:32;95635.25;;;-146.70;68.14
7474;BME280;3778;42.572;23.426;2023-03-13T05:28:59;95564.38;;;-146.70;68.03
7474;BME280;3778;42.572;23.426;2023-03-13T05:31:25;95608.16;;;-146.70;68.00
7474;BME280;3778;42.572;23.426;2023-03-13T05:33:53;95610.22;;;-146.70;67.88
7474;BME280;3778;42.572;23.426;2023-03-13T05:36:20;95585.22;;;-146.70;68.00
7474;BME280;3778;42.572;23.426;2023-03-13T05:38:47;95599.81;;;-146.70;67.76
7474;BME280;3778;42.572;23.426;2023-03-13T05:41:13;95583.13;;;-146.70;67.48
7474;BME280;3778;42.572;23.426;2023-03-13T05:43:40;95562.28;;;-146.70;67.31
7474;BME280;3778;42.572;23.426;2023-03-13T05:46:07;95562.28;;;-146.70;66.87
7474;BME280;3778;42.572;23.426;2023-03-13T05:48:33;95558.13;;;-146.70;66.81
7474;BME280;3778;42.572;23.426;2023-03-13T05:51:01;95576.88;;;-146.70;66.71
7474;BME280;3778;42.572;23.426;2023-03-13T05:53:28;95581.03;;;-146.70;66.74
7474;BME280;3778;42.572;23.426;2023-03-13T05:55:55;95585.22;;;-146.70;66.80
7474;BME280;3778;42.572;23.426;2023-03-13T05:58:21;95576.88;;;-146.70;66.46
7474;BME280;3778;42.572;23.426;2023-03-13T06:00:48;95578.97;;;-146.70;66.28
7474;BME280;3778;42.572;23.426;2023-03-13T06:03:15;95583.13;;;-146.70;66.04
7474;BME280;3778;42.572;23.426;2023-03-13T06:05:41;95543.53;;;-146.70;66.51
7474;BME280;3778;42.572;23.426;2023-03-13T06:08:10;95510.16;;;-146.70;66.75
7474;BME280;3778;42.572;23.426;2023-03-13T06:10:36;95564.38;;;-146.70;66.41
7474;BME280;3778;42.572;23.426;2023-03-13T06:13:03;95520.59;;;-146.70;66.36
7474;BME280;3778;42.572;23.426;2023-03-13T06:15:30;95522.69;;;-146.70;65.86
7474;BME280;3778;42.572;23.426;2023-03-13T06:17:57;95514.34;;;-146.70;65.23
7474;BME280;3778;42.572;23.426;2023-03-13T06:20:23;95481.00;;;-146.70;64.48
7474;BME280;3778;42.572;23.426;2023-03-13T06:22:50;95524.75;;;-146.70;63.57
7474;BME280;3778;42.572;23.426;2023-03-13T06:25:18;95466.41;;;-146.70;63.23
7474;BME280;3778;42.572;23.426;2023-03-13T06:27:45;95549.78;;;-146.70;61.77
7474;BME280;3778;42.572;23.426;2023-03-13T06:30:12;95508.09;;;-146.70;61.48
7474;BME280;3778;42.572;23.426;2023-03-13T06:32:38;95520.59;;;-146.70;60.94
7474;BME280;3778;42.572;23.426;2023-03-13T06:35:05;95478.91;;;-146.70;60.99
7474;BME280;3778;42.572;23.426;2023-03-13T06:37:32;95487.25;;;-146.70;59.70
7474;BME280;3778;42.572;23.426;2023-03-13T06:39:59;95462.22;;;-146.70;60.23
7474;BME280;3778;42.572;23.426;2023-03-13T06:42:28;95514.34;;;-146.70;59.69
7474;BME280;3778;42.572;23.426;2023-03-13T06:44:54;95466.41;;;-146.70;58.62
7474;BME280;3778;42.572;23.426;2023-03-13T06:47:21;95424.72;;;-146.70;58.00
7474;BME280;3778;42.572;23.426;2023-03-13T06:49:48;95470.56;;;-146.70;58.81
7474;BME280;3778;42.572;23.426;2023-03-13T06:52:14;95460.16;;;-146.70;59.38
7474;BME280;3778;42.572;23.426;2023-03-13T06:54:41;95443.47;;;-146.70;58.30
7474;BME280;3778;42.572;23.426;2023-03-13T06:57:08;95403.88;;;-146.70;56.94
7474;BME280;3778;42.572;23.426;2023-03-13T06:59:36;95474.75;;;-146.70;55.18
7474;BME280;3778;42.572;23.426;2023-03-13T07:02:03;95385.09;;;-146.70;56.03
7474;BME280;3778;42.572;23.426;2023-03-13T07:04:30;95424.72;;;-146.70;55.91
7474;BME280;3778;42.572;23.426;2023-03-13T07:06:57;95424.72;;;-146.70;55.86
7474;BME280;3778;42.572;23.426;2023-03-13T07:09:24;95405.94;;;-146.70;56.71
7474;BME280;3778;42.572;23.426;2023-03-13T07:11:50;95416.38;;;-146.70;56.11
7474;BME280;3778;42.572;23.426;2023-03-13T07:14:17;95449.72;;;-146.70;54.93
7474;BME280;3778;42.572;23.426;2023-03-13T07:16:45;95383.03;;;-146.70;55.10
7474;BME280;3778;42.572;23.426;2023-03-13T07:19:12;95399.69;;;-146.70;54.80
7474;BME280;3778;42.572;23.426;2023-03-13T07:21:39;95383.03;;;-146.70;54.15
7474;BME280;3778;42.572;23.426;2023-03-13T07:24:06;95364.25;;;-146.70;52.79
7474;BME280;3778;42.572;23.426;2023-03-13T07:26:33;95414.28;;;-146.70;54.00
7474;BME280;3778;42.572;23.426;2023-03-13T07:29:00;95345.50;;;-146.70;52.01
7474;BME280;3778;42.572;23.426;2023-03-13T07:31:28;95358.00;;;-146.70;51.45
7474;BME280;3778;42.572;23.426;2023-03-13T07:33:59;95347.59;;;-146.70;52.75
7474;BME280;3778;42.572;23.426;2023-03-13T07:36:26;95351.75;;;-146.70;52.33
7474;BME280;3778;42.572;23.426;2023-03-13T07:38:52;95318.41;;;-146.70;52.20
7474;BME280;3778;42.572;23.426;2023-03-13T07:41:19;95295.47;;;-146.70;50.59
7474;BME280;3778;42.572;23.426;2023-03-13T07:43:46;95368.44;;;-146.70;50.60
7474;BME280;3778;42.572;23.426;2023-03-13T07:46:14;95291.31;;;-146.70;50.27
7474;BME280;3778;42.572;23.426;2023-03-13T07:48:43;95295.47;;;-146.70;50.39
7474;BME280;3778;42.572;23.426;2023-03-13T07:51:13;95303.81;;;-146.70;49.32
7474;BME280;3778;42.572;23.426;2023-03-13T07:53:41;95305.91;;;-146.70;49.00
7474;BME280;3778;42.572;23.426;2023-03-13T07:56:10;95293.41;;;-146.70;49.85
7474;BME280;3778;42.572;23.426;2023-03-13T07:58:39;95260.06;;;-146.70;49.60
7474;BME280;3778;42.572;23.426;2023-03-13T08:01:09;95278.81;;;-146.70;49.75
7474;BME280;3778;42.572;23.426;2023-03-13T08:03:36;95316.31;;;-146.70;50.08
7474;BME280;3778;42.572;23.426;2023-03-13T08:06:06;95299.66;;;-146.70;50.57
7474;BME280;3778;42.572;23.426;2023-03-13T08:08:35;95189.19;;;-146.70;50.67
7474;BME280;3778;42.572;23.426;2023-03-13T08:11:02;95312.16;;;-146.70;50.02
7474;BME280;3778;42.572;23.426;2023-03-13T08:13:30;95253.78;;;-146.70;49.95
7474;BME280;3778;42.572;23.426;2023-03-13T08:16:01;95268.38;;;-146.70;50.81
7474;BME280;3778;42.572;23.426;2023-03-13T08:18:28;95247.53;;;-146.70;50.73
7474;BME280;3778;42.572;23.426;2023-03-13T08:21:00;95257.97;;;-146.70;50.97
7474;BME280;3778;42.572;23.426;2023-03-13T08:23:27;95280.91;;;-146.70;50.02
7474;BME280;3778;42.572;23.426;2023-03-13T08:25:55;95249.63;;;-146.70;50.83
7474;BME280;3778;42.572;23.426;2023-03-13T08:28:22;95257.97;;;-146.70;50.35
7474;BME280;3778;42.572;23.426;2023-03-13T08:30:48;95241.28;;;-146.70;50.73
7474;BME280;3778;42.572;23.426;2023-03-13T08:33:15;95216.28;;;-146.70;49.66
7474;BME280;3778;42.572;23.426;2023-03-13T08:35:41;95174.59;;;-146.70;51.30
7474;BME280;3778;42.572;23.426;2023-03-13T08:38:08;95166.25;;;-146.70;50.18
7474;BME280;3778;42.572;23.426;2023-03-13T08:40:35;95168.34;;;-146.70;50.05
7474;BME280;3778;42.572;23.426;2023-03-13T08:43:18;95166.25;;;-146.70;49.86
7474;BME280;3778;42.572;23.426;2023-03-13T08:45:53;95176.69;;;-146.70;50.21
7474;BME280;3778;42.572;23.426;2023-03-13T08:48:20;95193.34;;;-146.70;49.84
7474;BME280;3778;42.572;23.426;2023-03-13T08:50:47;95201.69;;;-146.70;49.87
7474;BME280;3778;42.572;23.426;2023-03-13T08:53:13;95187.09;;;-146.70;51.23
7474;BME280;3778;42.572;23.426;2023-03-13T08:55:40;95149.59;;;-146.70;50.45
7474;BME280;3778;42.572;23.426;2023-03-13T08:58:07;95157.91;;;-146.70;50.26
7474;BME280;3778;42.572;23.426;2023-03-13T09:00:35;95201.69;;;-146.70;50.54
7474;BME280;3778;42.572;23.426;2023-03-13T09:03:01;95191.28;;;-146.70;51.46
7474;BME280;3778;42.572;23.426;2023-03-13T09:05:28;95205.84;;;-146.70;51.58
7474;BME280;3778;42.572;23.426;2023-03-13T09:07:55;95187.09;;;-146.70;51.06
7474;BME280;3778;42.572;23.426;2023-03-13T09:10:22;95137.06;;;-146.70;50.94
7474;BME280;3778;42.572;23.426;2023-03-13T09:12:48;95199.59;;;-146.70;51.22
7474;BME280;3778;42.572;23.426;2023-03-13T09:15:15;95118.31;;;-146.70;51.07
7474;BME280;3778;42.572;23.426;2023-03-13T09:17:43;95182.94;;;-146.70;49.83
7474;BME280;3778;42.572;23.426;2023-03-13T09:20:10;95157.91;;;-146.70;50.10
7474;BME280;3778;42.572;23.426;2023-03-13T09:22:37;95151.66;;;-146.70;51.72
7474;BME280;3778;42.572;23.426;2023-03-13T09:25:04;95114.16;;;-146.70;50.24
7474;BME280;3778;42.572;23.426;2023-03-13T09:27:31;95122.50;;;-146.70;49.26
7474;BME280;3778;42.572;23.426;2023-03-13T09:29:58;95176.69;;;-146.70;49.26
7474;BME280;3778;42.572;23.426;2023-03-13T09:32:24;95151.66;;;-146.70;48.98
7474;BME280;3778;42.572;23.426;2023-03-13T09:34:52;95141.25;;;-146.70;48.16
7474;BME280;3778;42.572;23.426;2023-03-13T09:37:20;95160.00;;;-146.70;49.19
7474;BME280;3778;42.572;23.426;2023-03-13T09:39:47;95103.72;;;-146.70;48.84
7474;BME280;3778;42.572;23.426;2023-03-13T09:42:16;95099.56;;;-146.70;48.63
7474;BME280;3778;42.572;23.426;2023-03-13T09:44:45;95120.41;;;-146.70;48.21
7474;BME280;3778;42.572;23.426;2023-03-13T09:47:19;95064.13;;;-146.70;48.09
7474;BME280;3778;42.572;23.426;2023-03-13T09:49:50;95080.81;;;-146.70;48.28
7474;BME280;3778;42.572;23.426;2023-03-13T09:52:22;95055.78;;;-146.70;48.11
7474;BME280;3778;42.572;23.426;2023-03-13T09:54:53;95068.31;;;-146.70;48.17
7474;BME280;3778;42.572;23.426;2023-03-13T09:57:27;95053.72;;;-146.70;48.53
7474;BME280;3778;42.572;23.426;2023-03-13T09:59:59;95049.53;;;-146.70;49.16
7474;BME280;3778;42.572;23.426;2023-03-13T10:02:31;95064.13;;;-146.70;48.03
7474;BME280;3778;42.572;23.426;2023-03-13T10:05:09;95074.56;;;-146.70;48.36
7474;BME280;3778;42.572;23.426;2023-03-13T10:07:39;95053.72;;;-146.70;48.13
7474;BME280;3778;42.572;23.426;2023-03-13T10:10:12;95037.03;;;-146.70;47.41
7474;BME280;3778;42.572;23.426;2023-03-13T10:12:43;94991.19;;;-146.70;46.64
7474;BME280;3778;42.572;23.426;2023-03-13T10:15:22;95005.78;;;-146.70;47.05
7474;BME280;3778;42.572;23.426;2023-03-13T10:17:52;94999.53;;;-146.70;48.06
7474;BME280;3778;42.572;23.426;2023-03-13T10:20:22;94978.69;;;-146.70;46.10
7474;BME280;3778;42.572;23.426;2023-03-13T10:22:55;94987.03;;;-146.70;47.22
7474;BME280;3778;42.572;23.426;2023-03-13T10:25:28;94982.84;;;-146.70;45.96
7474;BME280;3778;42.572;23.426;2023-03-13T10:27:55;95024.53;;;-146.70;45.78
7474;BME280;3778;42.572;23.426;2023-03-13T10:30:24;94970.34;;;-146.70;45.52
7474;BME280;3778;42.572;23.426;2023-03-13T10:32:58;94912.00;;;-146.70;45.42
7474;BME280;3778;42.572;23.426;2023-03-13T10:35:31;94907.81;;;-146.70;45.74
7474;BME280;3778;42.572;23.426;2023-03-13T10:38:03;94966.19;;;-146.70;45.98
7474;BME280;3778;42.572;23.426;2023-03-13T10:40:31;94937.00;;;-146.70;45.27
7474;BME280;3778;42.572;23.426;2023-03-13T10:43:03;94934.91;;;-146.70;46.61
7474;BME280;3778;42.572;23.426;2023-03-13T10:45:32;95080.81;;;-146.70;45.08
7474;BME280;3778;42.572;23.426;2023-03-13T10:48:03;94886.97;;;-146.70;44.52
7474;BME280;3778;42.572;23.426;2023-03-13T10:50:36;94891.16;;;-146.70;43.94
7474;BME280;3778;42.572;23.426;2023-03-13T10:53:20;94903.66;;;-146.70;43.50
7474;BME280;3778;42.572;23.426;2023-03-13T10:55:48;94874.47;;;-146.70;44.38
7474;BME280;3778;42.572;23.426;2023-03-13T10:58:18;94912.00;;;-146.70;43.13
7474;BME280;3778;42.572;23.426;2023-03-13T11:00:46;94855.72;;;-146.70;43.30
7474;BME280;3778;42.572;23.426;2023-03-13T11:03:16;94859.88;;;-146.70;43.67
7474;BME280;3778;42.572;23.426;2023-03-13T11:05:44;94826.53;;;-146.70;42.75
7474;BME280;3778;42.572;23.426;2023-03-13T11:08:22;94845.31;;;-146.70;42.10
7474;BME280;3778;42.572;23.426;2023-03-13T11:10:57;94841.13;;;-146.70;43.18
7474;BME280;3778;42.572;23.426;2023-03-13T11:13:29;94836.97;;;-146.70;43.27
7474;BME280;3778;42.572;23.426;2023-03-13T11:15:57;94780.69;;;-146.70;43.32
7474;BME280;3778;42.572;23.426;2023-03-13T11:18:29;94824.47;;;-146.70;42.97
7474;BME280;3778;42.572;23.426;2023-03-13T11:21:02;94782.78;;;-146.70;42.56
7474;BME280;3778;42.572;23.426;2023-03-13T11:23:35;94803.63;;;-146.70;43.24
7474;BME280;3778;42.572;23.426;2023-03-13T11:26:10;94809.88;;;-146.70;42.58
7474;BME280;3778;42.572;23.426;2023-03-13T11:28:49;94895.31;;;-146.70;43.52
7474;BME280;3778;42.572;23.426;2023-03-13T11:31:23;94793.19;;;-146.70;43.46
7474;BME280;3778;42.572;23.426;2023-03-13T11:33:55;94774.44;;;-146.70;42.30
7474;BME280;3778;42.572;23.426;2023-03-13T11:36:32;94801.53;;;-146.70;41.70
7474;BME280;3778;42.572;23.426;2023-03-13T11:39:27;94807.78;;;-146.70;42.64
7474;BME280;3778;42.572;23.426;2023-03-13T11:41:59;94714.00;;;-146.70;41.35
7474;BME280;3778;42.572;23.426;2023-03-13T11:44:30;94720.25;;;-146.70;41.39
7474;BME280;3778;42.572;23.426;2023-03-13T11:47:27;94778.59;;;-146.70;41.68
7474;BME280;3778;42.572;23.426;2023-03-13T11:50:11;94728.59;;;-146.70;42.12
7474;BME280;3778;42.572;23.426;2023-03-13T11:52:51;94743.19;;;-146.70;41.37
7474;BME280;3778;42.572;23.426;2023-03-13T11:55:39;94691.09;;;-146.70;42.37
7474;BME280;3778;42.572;23.426;2023-03-13T11:58:27;94653.56;;;-146.70;41.60
7474;BME280;3778;42.572;23.426;2023-03-13T12:01:01;94626.47;;;-146.70;41.94
7474;BME280;3778;42.572;23.426;2023-03-13T12:03:34;94584.78;;;-146.70;40.53
7474;BME280;3778;42.572;23.426;2023-03-13T12:06:02;94616.06;;;-146.70;39.62
7474;BME280;3778;42.572;23.426;2023-03-13T12:08:34;94636.91;;;-146.70;39.66
7474;BME280;3778;42.572;23.426;2023-03-13T12:11:10;94607.72;;;-146.70;39.72
7474;BME280;3778;42.572;23.426;2023-03-13T12:13:40;94609.81;;;-146.70;39.24
7474;BME280;3778;42.572;23.426;2023-03-13T12:16:13;94616.06;;;-146.70;39.46
7474;BME280;3778;42.572;23.426;2023-03-13T12:18:42;94603.56;;;-146.70;39.53
7474;BME280;3778;42.572;23.426;2023-03-13T12:21:16;94543.13;;;-146.70;39.78
7474;BME280;3778;42.572;23.426;2023-03-13T12:23:49;94528.53;;;-146.70;38.32
7474;BME280;3778;42.572;23.426;2023-03-13T12:26:21;94611.88;;;-146.70;38.70
7474;BME280;3778;42.572;23.426;2023-03-13T12:29:01;94580.63;;;-146.70;38.29
7474;BME280;3778;42.572;23.426;2023-03-13T12:31:35;94570.22;;;-146.70;39.44
7474;BME280;3778;42.572;23.426;2023-03-13T12:34:11;94520.19;;;-146.70;39.04
7474;BME280;3778;42.572;23.426;2023-03-13T12:36:43;94536.88;;;-146.70;39.09
7474;BME280;3778;42.572;23.426;2023-03-13T12:39:19;94499.34;;;-146.70;37.60
7474;BME280;3778;42.572;23.426;2023-03-13T12:41:55;94486.84;;;-146.70;37.78
7474;BME280;3778;42.572;23.426;2023-03-13T12:44:26;94451.44;;;-146.70;36.76
7474;BME280;3778;42.572;23.426;2023-03-13T12:46:59;94472.28;;;-146.70;37.08
7474;BME280;3778;42.572;23.426;2023-03-13T12:49:57;94370.16;;;-146.70;37.77
7474;BME280;3778;42.572;23.426;2023-03-13T12:52:49;94397.25;;;-146.70;36.08
7474;BME280;3778;42.572;23.426;2023-03-13T12:55:32;94359.75;;;-146.70;36.21
7474;BME280;3778;42.572;23.426;2023-03-13T12:58:24;94363.91;;;-146.70;35.29
7474;BME280;3778;42.572;23.426;2023-03-13T13:00:53;94288.88;;;-146.70;35.36